NJE285 PAOT-PAFA
Flight info
| Callsign | NJE285 |
|---|---|
| Flight time | 1h 15m |
| Altitude | 37000 |
| Route | OTZ V531 MINTO |
| Aircraft | E55P/M-SBDFGHJ2RWY/LB2 |
Departure
| Time | 2026-04-15 03:12 |
|---|---|
| Airport | Ralph Wien Memorial Airport (PAOT) |
Arrival
| Time | 2026-04-15 04:27 |
|---|---|
| Airport | Fairbanks International Airport (PAFA) |
| Time | Latitude | Longitude | Altitude | Speed | Heading |
|---|---|---|---|---|---|
| 2026-04-15 03:02 | 66.89066 | -162.60220 | 20 ft | 0 kts | 101° |
| 2026-04-15 03:10 | 66.89065 | -162.60200 | 20 ft | 4 kts | 105° |
| 2026-04-15 03:10 | 66.89030 | -162.60216 | 20 ft | 9 kts | 256° |
| 2026-04-15 03:10 | 66.89047 | -162.60458 | 20 ft | 16 kts | 282° |
| 2026-04-15 03:10 | 66.89021 | -162.60677 | 20 ft | 11 kts | 220° |
| 2026-04-15 03:11 | 66.88957 | -162.60792 | 20 ft | 9 kts | 187° |
| 2026-04-15 03:11 | 66.88930 | -162.60761 | 20 ft | 0 kts | 102° |
| 2026-04-15 03:11 | 66.88911 | -162.60548 | 20 ft | 49 kts | 101° |
| 2026-04-15 03:11 | 66.88778 | -162.58923 | 15 ft | 135 kts | 101° |
| 2026-04-15 03:12 | 66.88549 | -162.56160 | 470 ft | 179 kts | 101° |
| 2026-04-15 03:12 | 66.87910 | -162.53398 | 1213 ft | 190 kts | 143° |
| 2026-04-15 03:12 | 66.86933 | -162.51195 | 1945 ft | 193 kts | 114° |
| 2026-04-15 03:12 | 66.86728 | -162.47903 | 2746 ft | 193 kts | 97° |
| 2026-04-15 03:13 | 66.86436 | -162.44586 | 3534 ft | 196 kts | 103° |
| 2026-04-15 03:13 | 66.86078 | -162.40935 | 3796 ft | 227 kts | 102° |
| 2026-04-15 03:13 | 66.85689 | -162.37004 | 4616 ft | 231 kts | 102° |
| 2026-04-15 03:13 | 66.85300 | -162.33073 | 5453 ft | 233 kts | 103° |
| 2026-04-15 03:14 | 66.84902 | -162.29080 | 6291 ft | 235 kts | 103° |
| 2026-04-15 03:14 | 66.84501 | -162.25060 | 7118 ft | 237 kts | 104° |
| 2026-04-15 03:14 | 66.84099 | -162.21053 | 7921 ft | 239 kts | 104° |
| 2026-04-15 03:14 | 66.83689 | -162.16980 | 8716 ft | 241 kts | 104° |
| 2026-04-15 03:15 | 66.83274 | -162.12869 | 9497 ft | 243 kts | 104° |
| 2026-04-15 03:15 | 66.82851 | -162.08697 | 10267 ft | 245 kts | 104° |
| 2026-04-15 03:15 | 66.82427 | -162.04523 | 11016 ft | 247 kts | 104° |
| 2026-04-15 03:15 | 66.82003 | -162.00362 | 11740 ft | 249 kts | 105° |
| 2026-04-15 03:16 | 66.81569 | -161.96114 | 12449 ft | 252 kts | 105° |
| 2026-04-15 03:16 | 66.81126 | -161.91805 | 13138 ft | 255 kts | 105° |
| 2026-04-15 03:16 | 66.80679 | -161.87460 | 13816 ft | 257 kts | 105° |
| 2026-04-15 03:16 | 66.80223 | -161.83060 | 14480 ft | 260 kts | 105° |
| 2026-04-15 03:17 | 66.79765 | -161.78630 | 15129 ft | 263 kts | 105° |
| 2026-04-15 03:17 | 66.79293 | -161.74101 | 15773 ft | 266 kts | 106° |
| 2026-04-15 03:17 | 66.78825 | -161.69617 | 16390 ft | 268 kts | 106° |
| 2026-04-15 03:17 | 66.78341 | -161.64984 | 17008 ft | 271 kts | 106° |
| 2026-04-15 03:18 | 66.77858 | -161.60384 | 17593 ft | 274 kts | 106° |
| 2026-04-15 03:18 | 66.77367 | -161.55721 | 18174 ft | 276 kts | 106° |
| 2026-04-15 03:18 | 66.76870 | -161.51016 | 18733 ft | 279 kts | 107° |
| 2026-04-15 03:18 | 66.76359 | -161.46199 | 19292 ft | 282 kts | 107° |
| 2026-04-15 03:19 | 66.75851 | -161.41422 | 19828 ft | 284 kts | 107° |
| 2026-04-15 03:19 | 66.75333 | -161.36565 | 20353 ft | 287 kts | 107° |
| 2026-04-15 03:19 | 66.74812 | -161.31705 | 20871 ft | 290 kts | 108° |
| 2026-04-15 03:19 | 66.74284 | -161.26784 | 21368 ft | 292 kts | 108° |
| 2026-04-15 03:20 | 66.73743 | -161.21773 | 21848 ft | 295 kts | 108° |
| 2026-04-15 03:20 | 66.73204 | -161.16782 | 22326 ft | 297 kts | 108° |
| 2026-04-15 03:20 | 66.72660 | -161.11769 | 22768 ft | 300 kts | 108° |
| 2026-04-15 03:20 | 66.72101 | -161.06632 | 23224 ft | 303 kts | 108° |
| 2026-04-15 03:21 | 66.71544 | -161.01523 | 23658 ft | 305 kts | 109° |
| 2026-04-15 03:21 | 66.70400 | -160.91077 | 24450 ft | 312 kts | 109° |
| 2026-04-15 03:21 | 66.69827 | -160.85872 | 24821 ft | 315 kts | 110° |
| 2026-04-15 03:22 | 66.69228 | -160.80461 | 25200 ft | 318 kts | 110° |
| 2026-04-15 03:22 | 66.68638 | -160.75169 | 25546 ft | 322 kts | 110° |
| 2026-04-15 03:22 | 66.68027 | -160.69708 | 25937 ft | 324 kts | 110° |
| 2026-04-15 03:22 | 66.67409 | -160.64198 | 26286 ft | 326 kts | 110° |
| 2026-04-15 03:23 | 66.66793 | -160.58720 | 26646 ft | 329 kts | 110° |
| 2026-04-15 03:23 | 66.66167 | -160.53166 | 26987 ft | 331 kts | 110° |
| 2026-04-15 03:23 | 66.65548 | -160.47705 | 27332 ft | 333 kts | 110° |
| 2026-04-15 03:23 | 66.64904 | -160.42044 | 27665 ft | 335 kts | 110° |
| 2026-04-15 03:24 | 66.64256 | -160.36351 | 27998 ft | 337 kts | 110° |
| 2026-04-15 03:24 | 66.63612 | -160.30722 | 28391 ft | 337 kts | 111° |
| 2026-04-15 03:24 | 66.62967 | -160.25099 | 28769 ft | 336 kts | 111° |
| 2026-04-15 03:24 | 66.62336 | -160.19629 | 29139 ft | 336 kts | 112° |
| 2026-04-15 03:25 | 66.60993 | -160.08075 | 29312 ft | 353 kts | 111° |
| 2026-04-15 03:25 | 66.60305 | -160.02150 | 29646 ft | 353 kts | 111° |
| 2026-04-15 03:25 | 66.59328 | -159.96576 | 29938 ft | 346 kts | 124° |
| 2026-04-15 03:26 | 66.58163 | -159.91342 | 30283 ft | 346 kts | 124° |
| 2026-04-15 03:26 | 66.56987 | -159.86101 | 30572 ft | 347 kts | 124° |
| 2026-04-15 03:26 | 66.55798 | -159.80841 | 30929 ft | 346 kts | 124° |
| 2026-04-15 03:26 | 66.54616 | -159.75636 | 31236 ft | 346 kts | 124° |
| 2026-04-15 03:27 | 66.53419 | -159.70389 | 31526 ft | 346 kts | 124° |
| 2026-04-15 03:27 | 66.52228 | -159.65183 | 31834 ft | 345 kts | 125° |
| 2026-04-15 03:27 | 66.51033 | -159.59978 | 32114 ft | 346 kts | 124° |
| 2026-04-15 03:27 | 66.49893 | -159.55020 | 32401 ft | 345 kts | 125° |
| 2026-04-15 03:28 | 66.48685 | -159.49782 | 32667 ft | 345 kts | 125° |
| 2026-04-15 03:28 | 66.47499 | -159.44658 | 32915 ft | 346 kts | 125° |
| 2026-04-15 03:28 | 66.46307 | -159.39514 | 33196 ft | 345 kts | 125° |
| 2026-04-15 03:28 | 66.45106 | -159.34346 | 33474 ft | 345 kts | 126° |
| 2026-04-15 03:29 | 66.43906 | -159.29199 | 33752 ft | 344 kts | 126° |
| 2026-04-15 03:29 | 66.42701 | -159.24040 | 33963 ft | 345 kts | 126° |
| 2026-04-15 03:29 | 66.41502 | -159.18919 | 34214 ft | 344 kts | 126° |
| 2026-04-15 03:29 | 66.40294 | -159.13771 | 34477 ft | 344 kts | 126° |
| 2026-04-15 03:30 | 66.39079 | -159.08607 | 34680 ft | 344 kts | 126° |
| 2026-04-15 03:30 | 66.37869 | -159.03465 | 34889 ft | 345 kts | 126° |
| 2026-04-15 03:30 | 66.36656 | -158.98334 | 35081 ft | 346 kts | 127° |
| 2026-04-15 03:30 | 66.35437 | -158.93184 | 35283 ft | 346 kts | 127° |
| 2026-04-15 03:31 | 66.34209 | -158.88010 | 35476 ft | 346 kts | 127° |
| 2026-04-15 03:31 | 66.32979 | -158.82844 | 35680 ft | 346 kts | 127° |
| 2026-04-15 03:31 | 66.31775 | -158.77805 | 35898 ft | 346 kts | 127° |
| 2026-04-15 03:31 | 66.30545 | -158.72665 | 36098 ft | 345 kts | 127° |
| 2026-04-15 03:32 | 66.29318 | -158.67554 | 36272 ft | 346 kts | 127° |
| 2026-04-15 03:32 | 66.28114 | -158.62537 | 36461 ft | 346 kts | 127° |
| 2026-04-15 03:32 | 66.26903 | -158.57510 | 36645 ft | 346 kts | 127° |
| 2026-04-15 03:32 | 66.25676 | -158.52426 | 36786 ft | 347 kts | 127° |
| 2026-04-15 03:33 | 66.24445 | -158.47336 | 36977 ft | 346 kts | 127° |
| 2026-04-15 03:33 | 66.23222 | -158.42305 | 37033 ft | 350 kts | 127° |
| 2026-04-15 03:33 | 66.20656 | -158.31770 | 37045 ft | 360 kts | 128° |
| 2026-04-15 03:34 | 66.18037 | -158.21059 | 37045 ft | 370 kts | 127° |
| 2026-04-15 03:34 | 66.15355 | -158.10149 | 37046 ft | 380 kts | 127° |
| 2026-04-15 03:35 | 66.12573 | -157.98886 | 37040 ft | 389 kts | 127° |
| 2026-04-15 03:35 | 66.09731 | -157.87433 | 37041 ft | 398 kts | 127° |
| 2026-04-15 03:36 | 66.06885 | -157.76033 | 37038 ft | 406 kts | 127° |
| 2026-04-15 03:36 | 66.03905 | -157.64154 | 37035 ft | 414 kts | 127° |
| 2026-04-15 03:37 | 66.00826 | -157.51950 | 37032 ft | 420 kts | 127° |
| 2026-04-15 03:37 | 65.97710 | -157.39664 | 37028 ft | 423 kts | 127° |
| 2026-04-15 03:38 | 65.94591 | -157.27435 | 37016 ft | 424 kts | 128° |
| 2026-04-15 03:38 | 65.91450 | -157.15189 | 36995 ft | 425 kts | 128° |
| 2026-04-15 03:39 | 65.88302 | -157.02980 | 37001 ft | 427 kts | 128° |
| 2026-04-15 03:39 | 65.85140 | -156.90796 | 37002 ft | 429 kts | 128° |
| 2026-04-15 03:40 | 65.81928 | -156.78490 | 37003 ft | 431 kts | 128° |
| 2026-04-15 03:40 | 65.78690 | -156.66144 | 37003 ft | 431 kts | 128° |
| 2026-04-15 03:41 | 65.75470 | -156.53944 | 37002 ft | 429 kts | 128° |
| 2026-04-15 03:41 | 65.72248 | -156.41792 | 37003 ft | 427 kts | 128° |
| 2026-04-15 03:42 | 65.70798 | -156.35721 | 36983 ft | 429 kts | 117° |
| 2026-04-15 03:42 | 65.69961 | -156.28740 | 37005 ft | 428 kts | 111° |
| 2026-04-15 03:42 | 65.68395 | -156.14818 | 37001 ft | 428 kts | 111° |
| 2026-04-15 03:43 | 65.66804 | -156.00745 | 37004 ft | 438 kts | 111° |
| 2026-04-15 03:43 | 65.65175 | -155.86456 | 37003 ft | 444 kts | 111° |
| 2026-04-15 03:44 | 65.63528 | -155.72116 | 37002 ft | 444 kts | 111° |
| 2026-04-15 03:44 | 65.61862 | -155.57758 | 37002 ft | 442 kts | 111° |
| 2026-04-15 03:45 | 65.60190 | -155.43492 | 36991 ft | 440 kts | 111° |
| 2026-04-15 03:45 | 65.58500 | -155.29190 | 36963 ft | 439 kts | 112° |
| 2026-04-15 03:46 | 65.56815 | -155.15073 | 36953 ft | 438 kts | 112° |
| 2026-04-15 03:46 | 65.55119 | -155.00989 | 36954 ft | 438 kts | 112° |
| 2026-04-15 03:47 | 65.53409 | -154.86845 | 36953 ft | 440 kts | 113° |
| 2026-04-15 03:47 | 65.51692 | -154.72852 | 36669 ft | 445 kts | 113° |
| 2026-04-15 03:48 | 65.50790 | -154.65573 | 36288 ft | 448 kts | 113° |
| 2026-04-15 03:48 | 65.49905 | -154.58431 | 35927 ft | 450 kts | 113° |
| 2026-04-15 03:48 | 65.48997 | -154.51150 | 35554 ft | 451 kts | 113° |
| 2026-04-15 03:48 | 65.48106 | -154.44025 | 35190 ft | 452 kts | 113° |
| 2026-04-15 03:49 | 65.47192 | -154.36754 | 34822 ft | 453 kts | 113° |
| 2026-04-15 03:49 | 65.46275 | -154.29491 | 34445 ft | 454 kts | 114° |
| 2026-04-15 03:49 | 65.45364 | -154.22316 | 34071 ft | 454 kts | 114° |
| 2026-04-15 03:49 | 65.44479 | -154.15355 | 33707 ft | 455 kts | 114° |
| 2026-04-15 03:50 | 65.43559 | -154.08156 | 33331 ft | 454 kts | 114° |
| 2026-04-15 03:50 | 65.42645 | -154.01036 | 32969 ft | 454 kts | 114° |
| 2026-04-15 03:50 | 65.41711 | -153.93802 | 32594 ft | 453 kts | 114° |
| 2026-04-15 03:50 | 65.40771 | -153.86552 | 32216 ft | 454 kts | 114° |
| 2026-04-15 03:51 | 65.39836 | -153.79370 | 31849 ft | 454 kts | 114° |
| 2026-04-15 03:51 | 65.38899 | -153.72192 | 31474 ft | 452 kts | 114° |
| 2026-04-15 03:51 | 65.37944 | -153.64918 | 31092 ft | 452 kts | 114° |
| 2026-04-15 03:51 | 65.37014 | -153.57861 | 30724 ft | 451 kts | 114° |
| 2026-04-15 03:52 | 65.36068 | -153.50711 | 30352 ft | 451 kts | 114° |
| 2026-04-15 03:52 | 65.35120 | -153.43584 | 29984 ft | 448 kts | 113° |
| 2026-04-15 03:52 | 65.34180 | -153.36557 | 29611 ft | 445 kts | 113° |
| 2026-04-15 03:52 | 65.33239 | -153.29541 | 29229 ft | 440 kts | 114° |
| 2026-04-15 03:53 | 65.32301 | -153.22565 | 28846 ft | 433 kts | 114° |
| 2026-04-15 03:53 | 65.31404 | -153.15930 | 28473 ft | 427 kts | 114° |
| 2026-04-15 03:53 | 65.30491 | -153.09201 | 28085 ft | 420 kts | 114° |
| 2026-04-15 03:53 | 65.29597 | -153.02637 | 27700 ft | 415 kts | 114° |
| 2026-04-15 03:54 | 65.28770 | -152.96578 | 27353 ft | 410 kts | 115° |
| 2026-04-15 03:54 | 65.27834 | -152.89763 | 26978 ft | 407 kts | 114° |
| 2026-04-15 03:54 | 65.26963 | -152.83444 | 26634 ft | 403 kts | 114° |
| 2026-04-15 03:55 | 65.25231 | -152.70955 | 25923 ft | 397 kts | 114° |
| 2026-04-15 03:55 | 65.24361 | -152.64722 | 25567 ft | 402 kts | 114° |
| 2026-04-15 03:55 | 65.23491 | -152.58516 | 25229 ft | 402 kts | 114° |
| 2026-04-15 03:55 | 65.22602 | -152.52182 | 24875 ft | 400 kts | 114° |
| 2026-04-15 03:56 | 65.21717 | -152.45911 | 24527 ft | 399 kts | 114° |
| 2026-04-15 03:56 | 65.20833 | -152.39670 | 24173 ft | 397 kts | 114° |
| 2026-04-15 03:56 | 65.19947 | -152.33421 | 23804 ft | 395 kts | 115° |
| 2026-04-15 03:56 | 65.19080 | -152.27330 | 23449 ft | 393 kts | 115° |
| 2026-04-15 03:57 | 65.18201 | -152.21188 | 23091 ft | 391 kts | 114° |
| 2026-04-15 03:57 | 65.17508 | -152.14914 | 22725 ft | 392 kts | 105° |
| 2026-04-15 03:57 | 65.17024 | -152.08615 | 22374 ft | 384 kts | 105° |
| 2026-04-15 03:57 | 65.16555 | -152.02493 | 22014 ft | 378 kts | 106° |
| 2026-04-15 03:58 | 65.16087 | -151.96393 | 21652 ft | 373 kts | 106° |
| 2026-04-15 03:58 | 65.15622 | -151.90405 | 21298 ft | 368 kts | 105° |
| 2026-04-15 03:58 | 65.15161 | -151.84470 | 20939 ft | 363 kts | 105° |
| 2026-04-15 03:58 | 65.14706 | -151.78641 | 20585 ft | 359 kts | 105° |
| 2026-04-15 03:59 | 65.14249 | -151.72824 | 20227 ft | 355 kts | 105° |
| 2026-04-15 03:59 | 65.13800 | -151.67134 | 19879 ft | 353 kts | 105° |
| 2026-04-15 03:59 | 65.13340 | -151.61342 | 19571 ft | 354 kts | 105° |
| 2026-04-15 03:59 | 65.12886 | -151.55652 | 19268 ft | 355 kts | 105° |
| 2026-04-15 04:00 | 65.12425 | -151.49883 | 18960 ft | 356 kts | 105° |
| 2026-04-15 04:00 | 65.11957 | -151.44064 | 18656 ft | 356 kts | 105° |
| 2026-04-15 04:00 | 65.11494 | -151.38335 | 18349 ft | 356 kts | 105° |
| 2026-04-15 04:00 | 65.11022 | -151.32552 | 18038 ft | 355 kts | 105° |
| 2026-04-15 04:01 | 65.10556 | -151.26845 | 17734 ft | 354 kts | 105° |
| 2026-04-15 04:01 | 65.10087 | -151.21127 | 17429 ft | 353 kts | 105° |
| 2026-04-15 04:01 | 65.09631 | -151.15595 | 17134 ft | 352 kts | 105° |
| 2026-04-15 04:01 | 65.09165 | -151.09958 | 16832 ft | 351 kts | 105° |
| 2026-04-15 04:02 | 65.08684 | -151.04187 | 16520 ft | 350 kts | 105° |
| 2026-04-15 04:02 | 65.08237 | -150.98846 | 16231 ft | 348 kts | 105° |
| 2026-04-15 04:02 | 65.07750 | -150.93057 | 15916 ft | 347 kts | 105° |
| 2026-04-15 04:02 | 65.07275 | -150.87462 | 15609 ft | 346 kts | 105° |
| 2026-04-15 04:03 | 65.06804 | -150.81924 | 15305 ft | 344 kts | 105° |
| 2026-04-15 04:03 | 65.06330 | -150.76379 | 14998 ft | 343 kts | 105° |
| 2026-04-15 04:03 | 65.05859 | -150.70901 | 14695 ft | 341 kts | 104° |
| 2026-04-15 04:03 | 65.05383 | -150.65378 | 14386 ft | 339 kts | 104° |
| 2026-04-15 04:04 | 65.04911 | -150.59927 | 14080 ft | 337 kts | 104° |
| 2026-04-15 04:04 | 65.04442 | -150.54524 | 13775 ft | 336 kts | 104° |
| 2026-04-15 04:04 | 65.03973 | -150.49168 | 13471 ft | 334 kts | 104° |
| 2026-04-15 04:04 | 65.03502 | -150.43787 | 13164 ft | 332 kts | 104° |
| 2026-04-15 04:05 | 65.03028 | -150.38409 | 12855 ft | 331 kts | 104° |
| 2026-04-15 04:05 | 65.02556 | -150.33083 | 12549 ft | 329 kts | 104° |
| 2026-04-15 04:05 | 65.02093 | -150.27876 | 12251 ft | 328 kts | 104° |
| 2026-04-15 04:05 | 65.01623 | -150.22607 | 11947 ft | 326 kts | 104° |
| 2026-04-15 04:06 | 65.01155 | -150.17386 | 11644 ft | 325 kts | 104° |
| 2026-04-15 04:06 | 65.00683 | -150.12137 | 11339 ft | 324 kts | 104° |
| 2026-04-15 04:06 | 65.00213 | -150.06931 | 11034 ft | 322 kts | 104° |
| 2026-04-15 04:06 | 64.99747 | -150.01794 | 10793 ft | 319 kts | 104° |
| 2026-04-15 04:07 | 64.99293 | -149.96799 | 10710 ft | 297 kts | 104° |
| 2026-04-15 04:07 | 64.98870 | -149.92156 | 10644 ft | 275 kts | 104° |
| 2026-04-15 04:07 | 64.98475 | -149.87852 | 10562 ft | 268 kts | 104° |
| 2026-04-15 04:07 | 64.98082 | -149.83592 | 10355 ft | 262 kts | 104° |
| 2026-04-15 04:08 | 64.97694 | -149.79405 | 10151 ft | 262 kts | 104° |
| 2026-04-15 04:08 | 64.97300 | -149.75174 | 9947 ft | 263 kts | 104° |
| 2026-04-15 04:08 | 64.96906 | -149.70947 | 9744 ft | 264 kts | 104° |
| 2026-04-15 04:08 | 64.96511 | -149.66724 | 9541 ft | 265 kts | 104° |
| 2026-04-15 04:09 | 64.96117 | -149.62511 | 9339 ft | 265 kts | 104° |
| 2026-04-15 04:09 | 64.95714 | -149.58228 | 9133 ft | 265 kts | 104° |
| 2026-04-15 04:09 | 64.95313 | -149.53984 | 8930 ft | 266 kts | 104° |
| 2026-04-15 04:09 | 64.94934 | -149.49982 | 8738 ft | 265 kts | 104° |
| 2026-04-15 04:10 | 64.94508 | -149.45500 | 8520 ft | 263 kts | 104° |
| 2026-04-15 04:10 | 64.94111 | -149.41321 | 8316 ft | 261 kts | 104° |
| 2026-04-15 04:10 | 64.93714 | -149.37174 | 8110 ft | 259 kts | 104° |
| 2026-04-15 04:10 | 64.93316 | -149.33025 | 7902 ft | 256 kts | 105° |
| 2026-04-15 04:11 | 64.92924 | -149.28954 | 7696 ft | 252 kts | 105° |
| 2026-04-15 04:11 | 64.92540 | -149.24966 | 7490 ft | 248 kts | 105° |
| 2026-04-15 04:11 | 64.92159 | -149.21033 | 7283 ft | 243 kts | 105° |
| 2026-04-15 04:11 | 64.91779 | -149.17116 | 7092 ft | 251 kts | 105° |
| 2026-04-15 04:12 | 64.91380 | -149.13034 | 6892 ft | 257 kts | 105° |
| 2026-04-15 04:12 | 64.90981 | -149.08946 | 6694 ft | 261 kts | 105° |
| 2026-04-15 04:12 | 64.90573 | -149.04788 | 6495 ft | 265 kts | 104° |
| 2026-04-15 04:12 | 64.90155 | -149.00539 | 6294 ft | 267 kts | 104° |
| 2026-04-15 04:13 | 64.89748 | -148.96408 | 6090 ft | 255 kts | 104° |
| 2026-04-15 04:13 | 64.89486 | -148.93747 | 5959 ft | 254 kts | 104° |
| 2026-04-15 04:13 | 64.89089 | -148.89899 | 5766 ft | 253 kts | 102° |
| 2026-04-15 04:13 | 64.88684 | -148.85742 | 5559 ft | 253 kts | 102° |
| 2026-04-15 04:14 | 64.88286 | -148.81708 | 5357 ft | 252 kts | 102° |
| 2026-04-15 04:14 | 64.87891 | -148.77742 | 5156 ft | 249 kts | 102° |
| 2026-04-15 04:14 | 64.87495 | -148.73785 | 5020 ft | 245 kts | 102° |
| 2026-04-15 04:14 | 64.87279 | -148.69833 | 4993 ft | 242 kts | 80° |
| 2026-04-15 04:15 | 64.88032 | -148.66347 | 5009 ft | 244 kts | 53° |
| 2026-04-15 04:15 | 64.89044 | -148.63109 | 4939 ft | 246 kts | 53° |
| 2026-04-15 04:15 | 64.89964 | -148.59685 | 4656 ft | 246 kts | 58° |
| 2026-04-15 04:15 | 64.90855 | -148.56230 | 4380 ft | 247 kts | 58° |
| 2026-04-15 04:16 | 64.91731 | -148.52794 | 4214 ft | 243 kts | 58° |
| 2026-04-15 04:16 | 64.92596 | -148.49361 | 4136 ft | 243 kts | 58° |
| 2026-04-15 04:16 | 64.93459 | -148.45962 | 4061 ft | 243 kts | 58° |
| 2026-04-15 04:16 | 64.94340 | -148.42511 | 4008 ft | 242 kts | 58° |
| 2026-04-15 04:17 | 64.95212 | -148.39101 | 4000 ft | 242 kts | 58° |
| 2026-04-15 04:17 | 64.96050 | -148.35687 | 3998 ft | 243 kts | 64° |
| 2026-04-15 04:17 | 64.96706 | -148.31990 | 4001 ft | 246 kts | 73° |
| 2026-04-15 04:17 | 64.97257 | -148.28137 | 4001 ft | 249 kts | 72° |
| 2026-04-15 04:18 | 64.97812 | -148.24249 | 3931 ft | 246 kts | 72° |
| 2026-04-15 04:18 | 64.98355 | -148.20445 | 3825 ft | 240 kts | 72° |
| 2026-04-15 04:18 | 64.98885 | -148.16730 | 3722 ft | 236 kts | 72° |
| 2026-04-15 04:18 | 64.99404 | -148.13092 | 3621 ft | 232 kts | 72° |
| 2026-04-15 04:19 | 64.99921 | -148.09464 | 3518 ft | 230 kts | 72° |
| 2026-04-15 04:19 | 65.00430 | -148.05890 | 3425 ft | 229 kts | 72° |
| 2026-04-15 04:19 | 65.00931 | -148.02371 | 3402 ft | 226 kts | 72° |
| 2026-04-15 04:19 | 65.01432 | -147.98845 | 3398 ft | 221 kts | 72° |
| 2026-04-15 04:20 | 65.01920 | -147.95419 | 3398 ft | 218 kts | 72° |
| 2026-04-15 04:20 | 65.02399 | -147.92044 | 3398 ft | 214 kts | 72° |
| 2026-04-15 04:20 | 65.02873 | -147.88705 | 3398 ft | 211 kts | 72° |
| 2026-04-15 04:20 | 65.03055 | -147.85336 | 3402 ft | 208 kts | 105° |
| 2026-04-15 04:21 | 65.02370 | -147.82370 | 3410 ft | 210 kts | 122° |
| 2026-04-15 04:21 | 65.01586 | -147.79485 | 3403 ft | 216 kts | 124° |
| 2026-04-15 04:21 | 65.00746 | -147.76500 | 3400 ft | 220 kts | 124° |
| 2026-04-15 04:21 | 64.99879 | -147.73476 | 3396 ft | 219 kts | 125° |
| 2026-04-15 04:22 | 64.99034 | -147.70564 | 3394 ft | 214 kts | 125° |
| 2026-04-15 04:22 | 64.98189 | -147.67670 | 3392 ft | 210 kts | 125° |
| 2026-04-15 04:22 | 64.97375 | -147.64893 | 3392 ft | 205 kts | 125° |
| 2026-04-15 04:22 | 64.96591 | -147.62225 | 3387 ft | 192 kts | 127° |
| 2026-04-15 04:23 | 64.95589 | -147.60503 | 3395 ft | 175 kts | 161° |
| 2026-04-15 04:23 | 64.94438 | -147.60669 | 3396 ft | 166 kts | 208° |
| 2026-04-15 04:23 | 64.93571 | -147.62622 | 3231 ft | 178 kts | 226° |
| 2026-04-15 04:23 | 64.92692 | -147.64735 | 3008 ft | 182 kts | 223° |
| 2026-04-15 04:24 | 64.91770 | -147.66775 | 2772 ft | 183 kts | 221° |
| 2026-04-15 04:24 | 64.90839 | -147.68715 | 2527 ft | 172 kts | 220° |
| 2026-04-15 04:24 | 64.89944 | -147.70506 | 2300 ft | 168 kts | 219° |
| 2026-04-15 04:24 | 64.89047 | -147.72249 | 2075 ft | 165 kts | 218° |
| 2026-04-15 04:25 | 64.88165 | -147.73930 | 1852 ft | 158 kts | 218° |
| 2026-04-15 04:25 | 64.87322 | -147.75519 | 1641 ft | 153 kts | 218° |
| 2026-04-15 04:25 | 64.86508 | -147.77040 | 1437 ft | 147 kts | 218° |
| 2026-04-15 04:25 | 64.85722 | -147.78503 | 1242 ft | 142 kts | 218° |
| 2026-04-15 04:26 | 64.84958 | -147.79919 | 1066 ft | 138 kts | 218° |
| 2026-04-15 04:26 | 64.84206 | -147.81311 | 879 ft | 137 kts | 218° |
| 2026-04-15 04:26 | 64.83467 | -147.82683 | 697 ft | 136 kts | 218° |
| 2026-04-15 04:26 | 64.82726 | -147.84056 | 514 ft | 135 kts | 218° |
| 2026-04-15 04:27 | 64.82011 | -147.85378 | 438 ft | 122 kts | 218° |
| 2026-04-15 04:27 | 64.81514 | -147.86290 | 438 ft | 64 kts | 218° |
| 2026-04-15 04:27 | 64.81239 | -147.86798 | 437 ft | 27 kts | 218° |
| 2026-04-15 04:27 | 64.81171 | -147.86998 | 437 ft | 13 kts | 283° |
| 2026-04-15 04:28 | 64.81227 | -147.87118 | 437 ft | 11 kts | 6° |
| 2026-04-15 04:28 | 64.81300 | -147.87012 | 437 ft | 14 kts | 38° |
| 2026-04-15 04:28 | 64.81390 | -147.86847 | 437 ft | 18 kts | 38° |
| 2026-04-15 04:28 | 64.81503 | -147.86638 | 437 ft | 21 kts | 38° |
| 2026-04-15 04:29 | 64.81622 | -147.86418 | 437 ft | 22 kts | 37° |
| 2026-04-15 04:29 | 64.81741 | -147.86200 | 437 ft | 19 kts | 38° |
| 2026-04-15 04:29 | 64.81811 | -147.86119 | 437 ft | 9 kts | 335° |
| 2026-04-15 04:29 | 64.81864 | -147.86243 | 437 ft | 11 kts | 310° |
| 2026-04-15 04:30 | 64.81893 | -147.86368 | 437 ft | 3 kts | 260° |
| 2026-04-15 04:30 | 64.81870 | -147.86456 | 437 ft | 10 kts | 235° |
| 2026-04-15 04:30 | 64.81838 | -147.86562 | 437 ft | 0 kts | 234° |